Captain D — WDH2354 — position and weather

sailwx.info

Track history (hours):
 
Tides and Currents Weather Stations Pressure Air Temp Water Temp Dewpoint Dewpoint Depression Visibility Wind Speed Wind Dir Waves Ship Positions

Captain D

Owner: Gilmerton Tugs LLC/Captain D, Norfolk, VA. More information available from US FCC via Universal Licensing System and Coast Guard Vessel Documentation Center.

Last reported at 2017-Dec-11 16:08 UTC. Time now 2017-Dec-11 22:47 UTC.
Position N 40°46' W 073°51'.

Length 27 m; draft 3.7 m.

Type: Tug. MMSI: 367596760.

Date/timePositionNaut miles runAvg speedWind from/ knotsBaromVisibWave heightAir tempDewpointWater temp
2017-Dec-11 16:08N 40°46' W 073°51'0 0.0
2017-Dec-11 15:56N 40°46' W 073°51'0 0.0
2017-Dec-11 15:29N 40°46' W 073°51'0 0.0
2017-Dec-11 13:20N 40°46' W 073°51'0 0.0
2017-Dec-11 12:56N 40°46' W 073°51'0 0.0
2017-Dec-11 11:32N 40°46' W 073°51'0 0.0
2017-Dec-11 11:17N 40°46' W 073°51'0 0.0
2017-Dec-11 10:56N 40°46' W 073°51'0 0.0
2017-Dec-11 10:29N 40°46' W 073°51'0 0.0
2017-Dec-11 09:56N 40°46' W 073°51'0 0.0
2017-Dec-11 06:20N 40°46' W 073°51'0 0.0
2017-Dec-11 05:50N 40°46' W 073°51'0 0.0
2017-Dec-11 05:29N 40°46' W 073°51'0 0.0
2017-Dec-11 04:35N 40°46' W 073°51'0 0.0
2017-Dec-11 04:29N 40°46' W 073°51'0 0.0
2017-Dec-10 01:04N 40°46' W 073°51'0 3.2
2017-Dec-10 01:00N 40°46' W 073°51'3 5.2
2017-Dec-10 00:30N 40°48' W 073°54'2 4.4
2017-Dec-10 00:00N 40°47' W 073°56'1 2.5
2017-Dec-09 23:30N 40°46' W 073°57'2 4.4
2017-Dec-09 23:00N 40°43' W 073°58'2 3.6
2017-Dec-09 22:30N 40°42' W 073°60'2 4.7
2017-Dec-09 22:01N 40°40' W 074°01'0 0.2
2017-Dec-09 21:28N 40°40' W 074°01'0 0.1
2017-Dec-09 20:58N 40°40' W 074°01'0 0.0
2017-Dec-09 20:28N 40°40' W 074°01'0 0.0
2017-Dec-09 19:58N 40°40' W 074°01'0 0.0
2017-Dec-09 19:28N 40°40' W 074°01'0 0.0
2017-Dec-09 18:58N 40°40' W 074°01'0 0.1
2017-Dec-09 18:31N 40°40' W 074°01'3 5.5
2017-Dec-09 18:00N 40°42' W 073°59'3 5.5
2017-Dec-09 17:30N 40°45' W 073°58'2 4.6
2017-Dec-09 17:00N 40°47' W 073°56'2 3.9
2017-Dec-09 16:30N 40°48' W 073°54'2 4.5
2017-Dec-09 16:00N 40°47' W 073°51'0 1.0
2017-Dec-09 15:29N 40°46' W 073°51'0 0.0
2017-Dec-09 14:47N 40°46' W 073°51'0 0.0
2017-Dec-09 14:26N 40°46' W 073°51'0 0.0
2017-Dec-09 13:59N 40°46' W 073°51'0 0.0
2017-Dec-09 13:29N 40°46' W 073°51'0 0.0
2017-Dec-09 12:56N 40°46' W 073°51'0 0.0
2017-Dec-09 12:26N 40°46' W 073°51'0 0.0
2017-Dec-09 11:59N 40°46' W 073°51'0 0.0
2017-Dec-09 11:29N 40°46' W 073°51'0 0.0
2017-Dec-09 10:59N 40°46' W 073°51'0 0.0
2017-Dec-09 10:29N 40°46' W 073°51'0 0.0
2017-Dec-09 09:53N 40°46' W 073°51'0 0.0
2017-Dec-09 09:14N 40°46' W 073°51'0 0.0
2017-Dec-09 08:53N 40°46' W 073°51'0 0.0
2017-Dec-09 08:26N 40°46' W 073°51'0 0.0
2017-Dec-09 07:59N 40°46' W 073°51'0 0.0
2017-Dec-09 07:20N 40°46' W 073°51'0 0.0
2017-Dec-09 06:59N 40°46' W 073°51'0 0.0
2017-Dec-09 06:29N 40°46' W 073°51'0 0.0
2017-Dec-09 05:56N 40°46' W 073°51'0 0.0
2017-Dec-09 04:05N 40°46' W 073°51'0 0.0
2017-Dec-09 03:38N 40°46' W 073°51'0 0.0
2017-Dec-09 03:29N 40°46' W 073°51'0 0.0
2017-Dec-09 02:56N 40°46' W 073°51'0 0.0
2017-Dec-09 01:53N 40°46' W 073°51'0 0.0
2017-Dec-09 01:05N 40°46' W 073°51'0 0.0
2017-Dec-08 23:02N 40°46' W 073°51'0 0.3
2017-Dec-08 22:56N 40°46' W 073°51'0 0.0
2017-Dec-08 18:35N 40°46' W 073°51'0 0.2
2017-Dec-08 18:29N 40°46' W 073°51'2 4.5
2017-Dec-08 17:59N 40°48' W 073°53'3 6.2
2017-Dec-08 17:30N 40°47' W 073°56'4 7.8
2017-Dec-08 17:00N 40°43' W 073°58'3 6.9
2017-Dec-08 16:30N 40°41' W 074°02'3 5.8
2017-Dec-08 16:00N 40°39' W 074°05'2 4.7
2017-Dec-08 15:29N 40°39' W 074°08'2 5.1
2017-Dec-08 15:00N 40°39' W 074°11'1 1.0
2017-Dec-08 14:29N 40°38' W 074°12'0 0.0
2017-Dec-08 13:58N 40°38' W 074°12'1 1.9
2017-Dec-08 13:30N 40°39' W 074°11'3 5.1
2017-Dec-08 13:00N 40°39' W 074°07'3 5.3
2017-Dec-08 12:31N 40°40' W 074°04'2 5.0
2017-Dec-08 12:00N 40°41' W 074°01'3 5.0
2017-Dec-08 11:30N 40°43' W 073°59'3 5.9
2017-Dec-08 11:00N 40°45' W 073°58'3 7.0
2017-Dec-08 10:30N 40°48' W 073°54'2 3.9
2017-Dec-08 09:58N 40°47' W 073°52'1 2.1
2017-Dec-08 09:23N 40°46' W 073°51'0 0.1
2017-Dec-08 08:58N 40°46' W 073°51'0 0.0
2017-Dec-08 08:25N 40°46' W 073°51'0 0.0
2017-Dec-08 07:55N 40°46' W 073°51'0 0.0
2017-Dec-08 07:01N 40°46' W 073°51'0 0.0
2017-Dec-08 06:49N 40°46' W 073°51'0 0.0
2017-Dec-08 06:13N 40°46' W 073°51'0 0.0
2017-Dec-08 05:49N 40°46' W 073°51'0 0.0
2017-Dec-08 05:28N 40°46' W 073°51'0 0.0
2017-Dec-08 04:49N 40°46' W 073°51'0 0.0
2017-Dec-08 04:22N 40°46' W 073°51'0 0.0
2017-Dec-08 01:49N 40°46' W 073°51'0 0.0
2017-Dec-07 21:13N 40°46' W 073°51'0 0.0
2017-Dec-07 19:01N 40°46' W 073°51'0 0.0
2017-Dec-07 18:59N 40°46' W 073°51'1 2.2
2017-Dec-07 18:25N 40°47' W 073°52'2 4.2
2017-Dec-07 17:59N 40°48' W 073°54'3 5.1
2017-Dec-07 17:28N 40°46' W 073°56'3 5.9
2017-Dec-07 17:00N 40°44' W 073°58'3 5.9
2017-Dec-07 16:30N 40°42' W 074°00'3 6.3
2017-Dec-07 16:00N 40°40' W 074°04'3 5.4
2017-Dec-07 15:30N 40°39' W 074°07'3 5.2
2017-Dec-07 14:57N 40°39' W 074°11'1 1.8
2017-Dec-07 14:31N 40°38' W 074°12'0 0.0
2017-Dec-07 14:00N 40°38' W 074°12'0 0.0
2017-Dec-07 13:28N 40°38' W 074°12'0 0.0
2017-Dec-07 13:00N 40°38' W 074°12'0 0.0
2017-Dec-07 12:30N 40°38' W 074°12'0 0.0
2017-Dec-07 12:00N 40°38' W 074°12'0 0.8
2017-Dec-07 11:30N 40°39' W 074°11'2 4.9
2017-Dec-07 11:00N 40°39' W 074°08'2 4.9
2017-Dec-07 10:30N 40°39' W 074°05'3 5.1
2017-Dec-07 10:00N 40°41' W 074°02'3 5.7
2017-Dec-07 09:30N 40°42' W 073°59'3 6.0
2017-Dec-07 09:00N 40°45' W 073°58'4 7.6
2017-Dec-07 08:30N 40°48' W 073°54'2 4.1
2017-Dec-07 08:00N 40°47' W 073°52'1 0.2
2017-Dec-07 02:17N 40°46' W 073°51'0 0.0
2017-Dec-07 00:37N 40°46' W 073°51'0 0.0
2017-Dec-07 00:13N 40°46' W 073°51'0 0.0
2017-Dec-06 23:58N 40°46' W 073°51'0 0.0
2017-Dec-06 23:25N 40°46' W 073°51'0 0.0
2017-Dec-06 22:58N 40°46' W 073°51'0 0.0
2017-Dec-06 20:49N 40°46' W 073°51'  
2017-Dec-04 10:30N 40°46' W 073°51'0 0.0
2017-Dec-04 10:00N 40°46' W 073°51'0 0.0
2017-Dec-04 09:30N 40°46' W 073°51'0 0.0
2017-Dec-04 09:00N 40°46' W 073°51'0 0.0
2017-Dec-04 08:30N 40°46' W 073°51'0 0.0
2017-Dec-04 07:59N 40°46' W 073°51'0 0.0
2017-Dec-04 07:30N 40°46' W 073°51'0 0.0
2017-Dec-04 07:00N 40°46' W 073°51'0 0.0
2017-Dec-04 06:29N 40°46' W 073°51'0 0.0
2017-Dec-04 06:00N 40°46' W 073°51'0 0.0
2017-Dec-04 05:30N 40°46' W 073°51'0 0.0
2017-Dec-04 05:00N 40°46' W 073°51'0 0.0
2017-Dec-04 04:29N 40°46' W 073°51'0 0.0
2017-Dec-04 03:59N 40°46' W 073°51'0 0.0
2017-Dec-04 03:30N 40°46' W 073°51'0 0.0
2017-Dec-04 03:00N 40°46' W 073°51'0 0.0
2017-Dec-04 02:30N 40°46' W 073°51'0 0.0
2017-Dec-04 01:59N 40°46' W 073°51'0 0.0
2017-Dec-04 01:30N 40°46' W 073°51'0 0.0
2017-Dec-04 01:00N 40°46' W 073°51'0 0.0
2017-Dec-04 00:29N 40°46' W 073°51'0 0.0
2017-Dec-03 23:59N 40°46' W 073°51'0 0.0
2017-Dec-03 23:30N 40°46' W 073°51'0 0.0
2017-Dec-03 22:58N 40°46' W 073°51'0 0.0
2017-Dec-03 22:30N 40°46' W 073°51'0 0.0
2017-Dec-03 22:00N 40°46' W 073°51'0 0.0
2017-Dec-03 21:28N 40°46' W 073°51'0 0.0
2017-Dec-03 20:56N 40°46' W 073°51'0 0.0
2017-Dec-03 20:01N 40°46' W 073°51'0 0.0
2017-Dec-03 19:57N 40°46' W 073°51'0 0.0
2017-Dec-03 19:11N 40°46' W 073°51'0 0.0
2017-Dec-03 18:56N 40°46' W 073°51'0 0.0
2017-Dec-03 18:30N 40°46' W 073°51'0 0.0
2017-Dec-03 18:00N 40°46' W 073°51'0 0.0
2017-Dec-03 17:29N 40°46' W 073°51'0 0.0
2017-Dec-03 16:25N 40°46' W 073°51'0 0.0
2017-Dec-03 15:49N 40°46' W 073°51'0 0.0
2017-Dec-03 15:30N 40°46' W 073°51'0 0.0
2017-Dec-03 14:59N 40°46' W 073°51'0 0.0
2017-Dec-03 14:30N 40°46' W 073°51'0 0.0
2017-Dec-03 14:00N 40°46' W 073°51'0 0.0
2017-Dec-03 13:30N 40°46' W 073°51'0 0.0
2017-Dec-03 12:59N 40°46' W 073°51'0 0.0
2017-Dec-03 12:30N 40°46' W 073°51'0 0.0
2017-Dec-03 12:00N 40°46' W 073°51'0 0.0
2017-Dec-03 11:30N 40°46' W 073°51'0 0.0
2017-Dec-03 11:00N 40°46' W 073°51'0 0.0
2017-Dec-03 10:30N 40°46' W 073°51'0 0.0
2017-Dec-03 10:00N 40°46' W 073°51'0 0.0
2017-Dec-03 09:30N 40°46' W 073°51'0 0.0
2017-Dec-03 09:00N 40°46' W 073°51'0 0.0
2017-Dec-03 08:30N 40°46' W 073°51'0 0.0
2017-Dec-03 07:59N 40°46' W 073°51'0 0.0
2017-Dec-03 07:29N 40°46' W 073°51'0 0.0
2017-Dec-03 07:00N 40°46' W 073°51'0 0.0
2017-Dec-03 06:30N 40°46' W 073°51'0 0.0
2017-Dec-03 06:00N 40°46' W 073°51'0 0.0
2017-Dec-03 05:29N 40°46' W 073°51'0 0.0
2017-Dec-03 05:00N 40°46' W 073°51'0 0.0
2017-Dec-03 04:29N 40°46' W 073°51'0 0.0
2017-Dec-03 04:00N 40°46' W 073°51'0 0.0
2017-Dec-03 03:30N 40°46' W 073°51'0 0.0
2017-Dec-03 02:58N 40°46' W 073°51'0 0.0
2017-Dec-03 02:30N 40°46' W 073°51'0 0.0
2017-Dec-03 02:00N 40°46' W 073°51'0 0.0
2017-Dec-03 01:28N 40°46' W 073°51'0 0.0
2017-Dec-03 01:00N 40°46' W 073°51'0 0.0
2017-Dec-03 00:29N 40°46' W 073°51'0 0.0
2017-Dec-03 00:00N 40°46' W 073°51'0 0.0
2017-Dec-02 23:30N 40°46' W 073°51'0 0.0
2017-Dec-02 22:59N 40°46' W 073°51'0 0.0
2017-Dec-02 22:30N 40°46' W 073°51'0 0.0
2017-Dec-02 22:00N 40°46' W 073°51'0 0.0
2017-Dec-02 21:28N 40°46' W 073°51'0 0.0
2017-Dec-02 20:55N 40°46' W 073°51'0 0.0
2017-Dec-02 20:30N 40°46' W 073°51'0 0.0
2017-Dec-02 20:00N 40°46' W 073°51'0 0.0
2017-Dec-02 19:30N 40°46' W 073°51'0 0.0
2017-Dec-02 18:59N 40°46' W 073°51'0 0.0
2017-Dec-02 18:30N 40°46' W 073°51'0 0.0
2017-Dec-02 18:00N 40°46' W 073°51'0 0.0
2017-Dec-02 17:28N 40°46' W 073°51'0 0.0
2017-Dec-02 17:00N 40°46' W 073°51'0 0.0
2017-Dec-02 16:24N 40°46' W 073°51'0 0.0
2017-Dec-02 15:59N 40°46' W 073°51'0 0.0
2017-Dec-02 15:30N 40°46' W 073°51'0 0.0
2017-Dec-02 15:00N 40°46' W 073°51'0 0.0
2017-Dec-02 14:29N 40°46' W 073°51'0 0.0
2017-Dec-02 13:59N 40°46' W 073°51'0 0.0
2017-Dec-02 13:30N 40°46' W 073°51'0 0.0
2017-Dec-02 13:00N 40°46' W 073°51'0 0.0
2017-Dec-02 12:30N 40°46' W 073°51'0 0.0
2017-Dec-02 11:59N 40°46' W 073°51'0 0.0
2017-Dec-02 11:30N 40°46' W 073°51'0 0.0
2017-Dec-02 11:00N 40°46' W 073°51'0 0.0
2017-Dec-02 10:30N 40°46' W 073°51'0 0.0
2017-Dec-02 10:00N 40°46' W 073°51'0 0.0
2017-Dec-02 09:29N 40°46' W 073°51'0 0.0
2017-Dec-02 09:00N 40°46' W 073°51'0 0.0
2017-Dec-02 08:30N 40°46' W 073°51'0 0.0
2017-Dec-02 07:59N 40°46' W 073°51'0 0.0
2017-Dec-02 07:30N 40°46' W 073°51'0 0.0
2017-Dec-02 07:00N 40°46' W 073°51'0 0.0
2017-Dec-02 06:30N 40°46' W 073°51'0 0.0
2017-Dec-02 06:00N 40°46' W 073°51'0 0.0
2017-Dec-02 05:29N 40°46' W 073°51'0 0.0
2017-Dec-02 05:00N 40°46' W 073°51'0 0.0
2017-Dec-02 04:30N 40°46' W 073°51'0 0.0
2017-Dec-02 04:00N 40°46' W 073°51'0 0.0
2017-Dec-02 03:30N 40°46' W 073°51'0 0.0
2017-Dec-02 03:00N 40°46' W 073°51'0 0.0
2017-Dec-02 02:30N 40°46' W 073°51'0 0.0
2017-Dec-02 02:00N 40°46' W 073°51'0 0.0
2017-Dec-02 01:30N 40°46' W 073°51'0 0.0
2017-Dec-02 01:00N 40°46' W 073°51'0 0.0
2017-Dec-02 00:30N 40°46' W 073°51'0 0.0
2017-Dec-02 00:00N 40°46' W 073°51'0 0.9
2017-Dec-01 23:30N 40°47' W 073°51'2 4.7
2017-Dec-01 23:00N 40°48' W 073°54'4 7.7
2017-Dec-01 22:30N 40°46' W 073°57'3 6.8
2017-Dec-01 22:00N 40°42' W 073°59'3 6.5
2017-Dec-01 21:30N 40°40' W 074°02'3 4.9
2017-Dec-01 21:00N 40°39' W 074°05'2 4.2
2017-Dec-01 20:29N 40°39' W 074°08'2 4.1
2017-Dec-01 19:59N 40°39' W 074°10'1 1.1
2017-Dec-01 19:04N 40°38' W 074°12'0 0.0
2017-Dec-01 18:46N 40°38' W 074°12'0 0.0
2017-Dec-01 18:28N 40°38' W 074°12'0 0.0
2017-Dec-01 17:55N 40°38' W 074°12'0 0.1
2017-Dec-01 17:29N 40°38' W 074°12'1 1.9
2017-Dec-01 16:59N 40°39' W 074°10'2 4.0
2017-Dec-01 16:29N 40°39' W 074°08'  
Track history (hours):
 
Tides and Currents Weather Stations Pressure Air Temp Water Temp Dewpoint Dewpoint Depression Visibility Wind Speed Wind Dir Waves Ship Positions

Captain D

Owner: Gilmerton Tugs LLC/Captain D, Norfolk, VA. More information available from US FCC via Universal Licensing System and Coast Guard Vessel Documentation Center.

Last reported at 2017-Dec-11 16:08 UTC. Time now 2017-Dec-11 22:47 UTC.
Position N 40°46' W 073°51'.

Length 27 m; draft 3.7 m.

Type: Tug. MMSI: 367596760.

Date/timePositionNaut miles runAvg speedWind from/ knotsBaromVisibWave heightAir tempDewpointWater temp
2017-Dec-11 16:08N 40°46' W 073°51'0 0.0
2017-Dec-11 15:56N 40°46' W 073°51'0 0.0
2017-Dec-11 15:29N 40°46' W 073°51'0 0.0
2017-Dec-11 13:20N 40°46' W 073°51'0 0.0
2017-Dec-11 12:56N 40°46' W 073°51'0 0.0
2017-Dec-11 11:32N 40°46' W 073°51'0 0.0
2017-Dec-11 11:17N 40°46' W 073°51'0 0.0
2017-Dec-11 10:56N 40°46' W 073°51'0 0.0
2017-Dec-11 10:29N 40°46' W 073°51'0 0.0
2017-Dec-11 09:56N 40°46' W 073°51'0 0.0
2017-Dec-11 06:20N 40°46' W 073°51'0 0.0
2017-Dec-11 05:50N 40°46' W 073°51'0 0.0
2017-Dec-11 05:29N 40°46' W 073°51'0 0.0
2017-Dec-11 04:35N 40°46' W 073°51'0 0.0
2017-Dec-11 04:29N 40°46' W 073°51'0 0.0
2017-Dec-10 01:04N 40°46' W 073°51'0 3.2
2017-Dec-10 01:00N 40°46' W 073°51'3 5.2
2017-Dec-10 00:30N 40°48' W 073°54'2 4.4
2017-Dec-10 00:00N 40°47' W 073°56'1 2.5
2017-Dec-09 23:30N 40°46' W 073°57'2 4.4
2017-Dec-09 23:00N 40°43' W 073°58'2 3.6
2017-Dec-09 22:30N 40°42' W 073°60'2 4.7
2017-Dec-09 22:01N 40°40' W 074°01'0 0.2
2017-Dec-09 21:28N 40°40' W 074°01'0 0.1
2017-Dec-09 20:58N 40°40' W 074°01'0 0.0
2017-Dec-09 20:28N 40°40' W 074°01'0 0.0
2017-Dec-09 19:58N 40°40' W 074°01'0 0.0
2017-Dec-09 19:28N 40°40' W 074°01'0 0.0
2017-Dec-09 18:58N 40°40' W 074°01'0 0.1
2017-Dec-09 18:31N 40°40' W 074°01'3 5.5
2017-Dec-09 18:00N 40°42' W 073°59'3 5.5
2017-Dec-09 17:30N 40°45' W 073°58'2 4.6
2017-Dec-09 17:00N 40°47' W 073°56'2 3.9
2017-Dec-09 16:30N 40°48' W 073°54'2 4.5
2017-Dec-09 16:00N 40°47' W 073°51'0 1.0
2017-Dec-09 15:29N 40°46' W 073°51'0 0.0
2017-Dec-09 14:47N 40°46' W 073°51'0 0.0
2017-Dec-09 14:26N 40°46' W 073°51'0 0.0
2017-Dec-09 13:59N 40°46' W 073°51'0 0.0
2017-Dec-09 13:29N 40°46' W 073°51'0 0.0
2017-Dec-09 12:56N 40°46' W 073°51'0 0.0
2017-Dec-09 12:26N 40°46' W 073°51'0 0.0
2017-Dec-09 11:59N 40°46' W 073°51'0 0.0
2017-Dec-09 11:29N 40°46' W 073°51'0 0.0
2017-Dec-09 10:59N 40°46' W 073°51'0 0.0
2017-Dec-09 10:29N 40°46' W 073°51'0 0.0
2017-Dec-09 09:53N 40°46' W 073°51'0 0.0
2017-Dec-09 09:14N 40°46' W 073°51'0 0.0
2017-Dec-09 08:53N 40°46' W 073°51'0 0.0
2017-Dec-09 08:26N 40°46' W 073°51'0 0.0
2017-Dec-09 07:59N 40°46' W 073°51'0 0.0
2017-Dec-09 07:20N 40°46' W 073°51'0 0.0
2017-Dec-09 06:59N 40°46' W 073°51'0 0.0
2017-Dec-09 06:29N 40°46' W 073°51'0 0.0
2017-Dec-09 05:56N 40°46' W 073°51'0 0.0
2017-Dec-09 04:05N 40°46' W 073°51'0 0.0
2017-Dec-09 03:38N 40°46' W 073°51'0 0.0
2017-Dec-09 03:29N 40°46' W 073°51'0 0.0
2017-Dec-09 02:56N 40°46' W 073°51'0 0.0
2017-Dec-09 01:53N 40°46' W 073°51'0 0.0
2017-Dec-09 01:05N 40°46' W 073°51'0 0.0
2017-Dec-08 23:02N 40°46' W 073°51'0 0.3
2017-Dec-08 22:56N 40°46' W 073°51'0 0.0
2017-Dec-08 18:35N 40°46' W 073°51'0 0.2
2017-Dec-08 18:29N 40°46' W 073°51'2 4.5
2017-Dec-08 17:59N 40°48' W 073°53'3 6.2
2017-Dec-08 17:30N 40°47' W 073°56'4 7.8
2017-Dec-08 17:00N 40°43' W 073°58'3 6.9
2017-Dec-08 16:30N 40°41' W 074°02'3 5.8
2017-Dec-08 16:00N 40°39' W 074°05'2 4.7
2017-Dec-08 15:29N 40°39' W 074°08'2 5.1
2017-Dec-08 15:00N 40°39' W 074°11'1 1.0
2017-Dec-08 14:29N 40°38' W 074°12'0 0.0
2017-Dec-08 13:58N 40°38' W 074°12'1 1.9
2017-Dec-08 13:30N 40°39' W 074°11'3 5.1
2017-Dec-08 13:00N 40°39' W 074°07'3 5.3
2017-Dec-08 12:31N 40°40' W 074°04'2 5.0
2017-Dec-08 12:00N 40°41' W 074°01'3 5.0
2017-Dec-08 11:30N 40°43' W 073°59'3 5.9
2017-Dec-08 11:00N 40°45' W 073°58'3 7.0
2017-Dec-08 10:30N 40°48' W 073°54'2 3.9
2017-Dec-08 09:58N 40°47' W 073°52'1 2.1
2017-Dec-08 09:23N 40°46' W 073°51'0 0.1
2017-Dec-08 08:58N 40°46' W 073°51'0 0.0
2017-Dec-08 08:25N 40°46' W 073°51'0 0.0
2017-Dec-08 07:55N 40°46' W 073°51'0 0.0
2017-Dec-08 07:01N 40°46' W 073°51'0 0.0
2017-Dec-08 06:49N 40°46' W 073°51'0 0.0
2017-Dec-08 06:13N 40°46' W 073°51'0 0.0
2017-Dec-08 05:49N 40°46' W 073°51'0 0.0
2017-Dec-08 05:28N 40°46' W 073°51'0 0.0
2017-Dec-08 04:49N 40°46' W 073°51'0 0.0
2017-Dec-08 04:22N 40°46' W 073°51'0 0.0
2017-Dec-08 01:49N 40°46' W 073°51'0 0.0
2017-Dec-07 21:13N 40°46' W 073°51'0 0.0
2017-Dec-07 19:01N 40°46' W 073°51'0 0.0
2017-Dec-07 18:59N 40°46' W 073°51'1 2.2
2017-Dec-07 18:25N 40°47' W 073°52'2 4.2
2017-Dec-07 17:59N 40°48' W 073°54'3 5.1
2017-Dec-07 17:28N 40°46' W 073°56'3 5.9
2017-Dec-07 17:00N 40°44' W 073°58'3 5.9
2017-Dec-07 16:30N 40°42' W 074°00'3 6.3
2017-Dec-07 16:00N 40°40' W 074°04'3 5.4
2017-Dec-07 15:30N 40°39' W 074°07'3 5.2
2017-Dec-07 14:57N 40°39' W 074°11'1 1.8
2017-Dec-07 14:31N 40°38' W 074°12'0 0.0
2017-Dec-07 14:00N 40°38' W 074°12'0 0.0
2017-Dec-07 13:28N 40°38' W 074°12'0 0.0
2017-Dec-07 13:00N 40°38' W 074°12'0 0.0
2017-Dec-07 12:30N 40°38' W 074°12'0 0.0
2017-Dec-07 12:00N 40°38' W 074°12'0 0.8
2017-Dec-07 11:30N 40°39' W 074°11'2 4.9
2017-Dec-07 11:00N 40°39' W 074°08'2 4.9
2017-Dec-07 10:30N 40°39' W 074°05'3 5.1
2017-Dec-07 10:00N 40°41' W 074°02'3 5.7
2017-Dec-07 09:30N 40°42' W 073°59'3 6.0
2017-Dec-07 09:00N 40°45' W 073°58'4 7.6
2017-Dec-07 08:30N 40°48' W 073°54'2 4.1
2017-Dec-07 08:00N 40°47' W 073°52'1 0.2
2017-Dec-07 02:17N 40°46' W 073°51'0 0.0
2017-Dec-07 00:37N 40°46' W 073°51'0 0.0
2017-Dec-07 00:13N 40°46' W 073°51'0 0.0
2017-Dec-06 23:58N 40°46' W 073°51'0 0.0
2017-Dec-06 23:25N 40°46' W 073°51'0 0.0
2017-Dec-06 22:58N 40°46' W 073°51'0 0.0
2017-Dec-06 20:49N 40°46' W 073°51'  
2017-Dec-04 10:30N 40°46' W 073°51'0 0.0
2017-Dec-04 10:00N 40°46' W 073°51'0 0.0
2017-Dec-04 09:30N 40°46' W 073°51'0 0.0
2017-Dec-04 09:00N 40°46' W 073°51'0 0.0
2017-Dec-04 08:30N 40°46' W 073°51'0 0.0
2017-Dec-04 07:59N 40°46' W 073°51'0 0.0
2017-Dec-04 07:30N 40°46' W 073°51'0 0.0
2017-Dec-04 07:00N 40°46' W 073°51'0 0.0
2017-Dec-04 06:29N 40°46' W 073°51'0 0.0
2017-Dec-04 06:00N 40°46' W 073°51'0 0.0
2017-Dec-04 05:30N 40°46' W 073°51'0 0.0
2017-Dec-04 05:00N 40°46' W 073°51'0 0.0
2017-Dec-04 04:29N 40°46' W 073°51'0 0.0
2017-Dec-04 03:59N 40°46' W 073°51'0 0.0
2017-Dec-04 03:30N 40°46' W 073°51'0 0.0
2017-Dec-04 03:00N 40°46' W 073°51'0 0.0
2017-Dec-04 02:30N 40°46' W 073°51'0 0.0
2017-Dec-04 01:59N 40°46' W 073°51'0 0.0
2017-Dec-04 01:30N 40°46' W 073°51'0 0.0
2017-Dec-04 01:00N 40°46' W 073°51'0 0.0
2017-Dec-04 00:29N 40°46' W 073°51'0 0.0
2017-Dec-03 23:59N 40°46' W 073°51'0 0.0
2017-Dec-03 23:30N 40°46' W 073°51'0 0.0
2017-Dec-03 22:58N 40°46' W 073°51'0 0.0
2017-Dec-03 22:30N 40°46' W 073°51'0 0.0
2017-Dec-03 22:00N 40°46' W 073°51'0 0.0
2017-Dec-03 21:28N 40°46' W 073°51'0 0.0
2017-Dec-03 20:56N 40°46' W 073°51'0 0.0
2017-Dec-03 20:01N 40°46' W 073°51'0 0.0
2017-Dec-03 19:57N 40°46' W 073°51'0 0.0
2017-Dec-03 19:11N 40°46' W 073°51'0 0.0
2017-Dec-03 18:56N 40°46' W 073°51'0 0.0
2017-Dec-03 18:30N 40°46' W 073°51'0 0.0
2017-Dec-03 18:00N 40°46' W 073°51'0 0.0
2017-Dec-03 17:29N 40°46' W 073°51'0 0.0
2017-Dec-03 16:25N 40°46' W 073°51'0 0.0
2017-Dec-03 15:49N 40°46' W 073°51'0 0.0
2017-Dec-03 15:30N 40°46' W 073°51'0 0.0
2017-Dec-03 14:59N 40°46' W 073°51'0 0.0
2017-Dec-03 14:30N 40°46' W 073°51'0 0.0
2017-Dec-03 14:00N 40°46' W 073°51'0 0.0
2017-Dec-03 13:30N 40°46' W 073°51'0 0.0
2017-Dec-03 12:59N 40°46' W 073°51'0 0.0
2017-Dec-03 12:30N 40°46' W 073°51'0 0.0
2017-Dec-03 12:00N 40°46' W 073°51'0 0.0
2017-Dec-03 11:30N 40°46' W 073°51'0 0.0
2017-Dec-03 11:00N 40°46' W 073°51'0 0.0
2017-Dec-03 10:30N 40°46' W 073°51'0 0.0
2017-Dec-03 10:00N 40°46' W 073°51'0 0.0
2017-Dec-03 09:30N 40°46' W 073°51'0 0.0
2017-Dec-03 09:00N 40°46' W 073°51'0 0.0
2017-Dec-03 08:30N 40°46' W 073°51'0 0.0
2017-Dec-03 07:59N 40°46' W 073°51'0 0.0
2017-Dec-03 07:29N 40°46' W 073°51'0 0.0
2017-Dec-03 07:00N 40°46' W 073°51'0 0.0
2017-Dec-03 06:30N 40°46' W 073°51'0 0.0
2017-Dec-03 06:00N 40°46' W 073°51'0 0.0
2017-Dec-03 05:29N 40°46' W 073°51'0 0.0
2017-Dec-03 05:00N 40°46' W 073°51'0 0.0
2017-Dec-03 04:29N 40°46' W 073°51'0 0.0
2017-Dec-03 04:00N 40°46' W 073°51'0 0.0
2017-Dec-03 03:30N 40°46' W 073°51'0 0.0
2017-Dec-03 02:58N 40°46' W 073°51'0 0.0
2017-Dec-03 02:30N 40°46' W 073°51'0 0.0
2017-Dec-03 02:00N 40°46' W 073°51'0 0.0
2017-Dec-03 01:28N 40°46' W 073°51'0 0.0
2017-Dec-03 01:00N 40°46' W 073°51'0 0.0
2017-Dec-03 00:29N 40°46' W 073°51'0 0.0
2017-Dec-03 00:00N 40°46' W 073°51'0 0.0
2017-Dec-02 23:30N 40°46' W 073°51'0 0.0
2017-Dec-02 22:59N 40°46' W 073°51'0 0.0
2017-Dec-02 22:30N 40°46' W 073°51'0 0.0
2017-Dec-02 22:00N 40°46' W 073°51'0 0.0
2017-Dec-02 21:28N 40°46' W 073°51'0 0.0
2017-Dec-02 20:55N 40°46' W 073°51'0 0.0
2017-Dec-02 20:30N 40°46' W 073°51'0 0.0
2017-Dec-02 20:00N 40°46' W 073°51'0 0.0
2017-Dec-02 19:30N 40°46' W 073°51'0 0.0
2017-Dec-02 18:59N 40°46' W 073°51'0 0.0
2017-Dec-02 18:30N 40°46' W 073°51'0 0.0
2017-Dec-02 18:00N 40°46' W 073°51'0 0.0
2017-Dec-02 17:28N 40°46' W 073°51'0 0.0
2017-Dec-02 17:00N 40°46' W 073°51'0 0.0
2017-Dec-02 16:24N 40°46' W 073°51'0 0.0
2017-Dec-02 15:59N 40°46' W 073°51'0 0.0
2017-Dec-02 15:30N 40°46' W 073°51'0 0.0
2017-Dec-02 15:00N 40°46' W 073°51'0 0.0
2017-Dec-02 14:29N 40°46' W 073°51'0 0.0
2017-Dec-02 13:59N 40°46' W 073°51'0 0.0
2017-Dec-02 13:30N 40°46' W 073°51'0 0.0
2017-Dec-02 13:00N 40°46' W 073°51'0 0.0
2017-Dec-02 12:30N 40°46' W 073°51'0 0.0
2017-Dec-02 11:59N 40°46' W 073°51'0 0.0
2017-Dec-02 11:30N 40°46' W 073°51'0 0.0
2017-Dec-02 11:00N 40°46' W 073°51'0 0.0
2017-Dec-02 10:30N 40°46' W 073°51'0 0.0
2017-Dec-02 10:00N 40°46' W 073°51'0 0.0
2017-Dec-02 09:29N 40°46' W 073°51'0 0.0
2017-Dec-02 09:00N 40°46' W 073°51'0 0.0
2017-Dec-02 08:30N 40°46' W 073°51'0 0.0
2017-Dec-02 07:59N 40°46' W 073°51'0 0.0
2017-Dec-02 07:30N 40°46' W 073°51'0 0.0
2017-Dec-02 07:00N 40°46' W 073°51'0 0.0
2017-Dec-02 06:30N 40°46' W 073°51'0 0.0
2017-Dec-02 06:00N 40°46' W 073°51'0 0.0
2017-Dec-02 05:29N 40°46' W 073°51'0 0.0
2017-Dec-02 05:00N 40°46' W 073°51'0 0.0
2017-Dec-02 04:30N 40°46' W 073°51'0 0.0
2017-Dec-02 04:00N 40°46' W 073°51'0 0.0
2017-Dec-02 03:30N 40°46' W 073°51'0 0.0
2017-Dec-02 03:00N 40°46' W 073°51'0 0.0
2017-Dec-02 02:30N 40°46' W 073°51'0 0.0
2017-Dec-02 02:00N 40°46' W 073°51'0 0.0
2017-Dec-02 01:30N 40°46' W 073°51'0 0.0
2017-Dec-02 01:00N 40°46' W 073°51'0 0.0
2017-Dec-02 00:30N 40°46' W 073°51'0 0.0
2017-Dec-02 00:00N 40°46' W 073°51'0 0.9
2017-Dec-01 23:30N 40°47' W 073°51'2 4.7
2017-Dec-01 23:00N 40°48' W 073°54'4 7.7
2017-Dec-01 22:30N 40°46' W 073°57'3 6.8
2017-Dec-01 22:00N 40°42' W 073°59'3 6.5
2017-Dec-01 21:30N 40°40' W 074°02'3 4.9
2017-Dec-01 21:00N 40°39' W 074°05'2 4.2
2017-Dec-01 20:29N 40°39' W 074°08'2 4.1
2017-Dec-01 19:59N 40°39' W 074°10'1 1.1
2017-Dec-01 19:04N 40°38' W 074°12'0 0.0
2017-Dec-01 18:46N 40°38' W 074°12'0 0.0
2017-Dec-01 18:28N 40°38' W 074°12'0 0.0
2017-Dec-01 17:55N 40°38' W 074°12'0 0.1
2017-Dec-01 17:29N 40°38' W 074°12'1 1.9
2017-Dec-01 16:59N 40°39' W 074°10'2 4.0
2017-Dec-01 16:29N 40°39' W 074°08'  

Dump ship's entire track history